Time;durP1;ratioP1;P1;durP2;ratioP2;P2;SDS_P1;SDS_P2;PMS_P1;PMS_P2;Temp;Humidity;BMP_temperature;BMP_pressure;BME280_temperature;BME280_humidity;BME280_pressure;Samples;Min_cycle;Max_cycle;Signal;HPM_P1;HPM_P2
2023/04/25 00:01:12;;;;;;;23.52;4.90;;;6.90;99.90;;;;;;4986840;28;20057;-56
2023/04/25 00:03:38;;;;;;;19.35;4.70;;;6.90;99.90;;;;;;4986185;28;20112;-56
2023/04/25 00:06:04;;;;;;;21.25;4.85;;;6.90;99.90;;;;;;4986995;28;20070;-62
2023/04/25 00:08:30;;;;;;;21.90;4.80;;;6.90;99.90;;;;;;4986184;28;20062;-57
2023/04/25 00:10:57;;;;;;;25.35;5.50;;;6.80;99.90;;;;;;4986605;28;20069;-60
2023/04/25 00:13:23;;;;;;;22.25;4.88;;;6.90;99.90;;;;;;4986360;28;20049;-54
2023/04/25 00:15:49;;;;;;;19.67;4.70;;;6.90;99.90;;;;;;4985631;28;20845;-60
2023/04/25 00:18:15;;;;;;;21.77;5.00;;;7.00;99.90;;;;;;4985471;28;20037;-53
2023/04/25 00:20:46;;;;;;;17.45;5.38;;;6.80;99.90;;;;;;4986563;28;20101;-61
2023/04/25 00:23:17;;;;;;;21.80;4.30;;;6.80;99.90;;;;;;4985480;28;20469;-60
2023/04/25 00:25:48;;;;;;;18.83;5.18;;;6.70;99.90;;;;;;4985817;28;20429;-53
2023/04/25 00:28:14;;;;;;;16.92;4.63;;;6.70;99.90;;;;;;4986176;28;20042;-57
2023/04/25 00:30:41;;;;;;;18.30;4.65;;;6.60;99.90;;;;;;4986108;28;20051;-58
2023/04/25 00:33:07;;;;;;;19.25;4.43;;;6.60;99.90;;;;;;4985414;28;20493;-57
2023/04/25 00:35:33;;;;;;;25.25;4.57;;;6.60;99.90;;;;;;4986478;28;20042;-57
2023/04/25 00:37:59;;;;;;;22.23;4.95;;;7.00;99.90;;;;;;4985784;28;20092;-60
2023/04/25 00:40:25;;;;;;;21.60;5.03;;;6.60;99.90;;;;;;4985790;28;20078;-57
2023/04/25 00:42:52;;;;;;;19.90;4.40;;;6.60;99.90;;;;;;4985678;28;20073;-55
2023/04/25 00:45:19;;;;;;;30.48;5.00;;;6.80;99.90;;;;;;4985358;28;20054;-51
2023/04/25 00:47:45;;;;;;;15.23;4.40;;;6.60;99.90;;;;;;4985406;28;20039;-60
2023/04/25 00:50:11;;;;;;;19.38;4.97;;;6.80;99.90;;;;;;4983330;28;20398;-56
2023/04/25 00:52:42;;;;;;;16.27;4.90;;;6.60;99.90;;;;;;4985441;28;20049;-54
2023/04/25 00:55:09;;;;;;;16.40;3.88;;;6.60;99.90;;;;;;4985372;28;20046;-61
2023/04/25 00:57:35;;;;;;;20.58;4.68;;;6.60;99.90;;;;;;4986258;28;20054;-54
2023/04/25 01:00:01;;;;;;;17.35;4.20;;;6.50;99.90;;;;;;4985751;28;20625;-53
2023/04/25 01:02:27;;;;;;;26.70;4.95;;;6.50;99.90;;;;;;4984956;28;20235;-60
2023/04/25 01:04:53;;;;;;;26.10;5.35;;;6.50;99.90;;;;;;4984902;28;20053;-56
2023/04/25 01:07:18;;;;;;;22.65;5.03;;;6.50;99.90;;;;;;4984810;28;20050;-57
2023/04/25 01:09:46;;;;;;;21.25;5.13;;;6.50;99.90;;;;;;4985709;28;20492;-58
2023/04/25 01:12:12;;;;;;;18.63;4.88;;;6.50;99.90;;;;;;4985641;28;20042;-60
2023/04/25 01:14:38;;;;;;;21.98;4.28;;;6.50;99.90;;;;;;5066195;22;20117;-61
2023/04/25 01:17:04;;;;;;;17.45;3.80;;;6.60;99.90;;;;;;4984139;28;20050;-57
2023/04/25 01:19:30;;;;;;;19.52;4.15;;;6.40;99.90;;;;;;4984110;28;20551;-58
2023/04/25 01:21:56;;;;;;;20.08;3.85;;;6.40;99.90;;;;;;4983497;28;20038;-61
2023/04/25 01:24:22;;;;;;;22.00;4.40;;;6.40;99.90;;;;;;4982930;28;20042;-57
2023/04/25 01:26:51;;;;;;;19.92;4.90;;;6.40;99.90;;;;;;4981025;28;20471;-57
2023/04/25 01:29:20;;;;;;;18.10;4.13;;;6.30;99.90;;;;;;4982948;28;20042;-54
2023/04/25 01:31:46;;;;;;;19.00;4.13;;;6.40;99.90;;;;;;4983136;28;20092;-60
2023/04/25 01:34:13;;;;;;;16.98;3.80;;;6.30;99.90;;;;;;4981316;28;20050;-53
2023/04/25 01:36:39;;;;;;;18.27;4.85;;;6.30;99.90;;;;;;4982781;28;20141;-59
2023/04/25 01:39:05;;;;;;;22.27;4.38;;;6.40;99.90;;;;;;4982989;28;20515;-57
2023/04/25 01:41:31;;;;;;;18.58;3.70;;;6.40;99.90;;;;;;4982791;28;20355;-60
2023/04/25 01:43:57;;;;;;;16.20;3.85;;;6.30;99.90;;;;;;4980791;28;20053;-53
2023/04/25 01:46:23;;;;;;;15.52;4.03;;;6.40;99.90;;;;;;4982614;28;20504;-58
2023/04/25 01:48:48;;;;;;;17.23;3.78;;;6.30;99.90;;;;;;4981846;28;20580;-60
2023/04/25 01:51:15;;;;;;;15.27;3.58;;;6.30;99.90;;;;;;4982305;28;20237;-58
2023/04/25 01:53:41;;;;;;;16.98;3.42;;;6.30;99.90;;;;;;4982707;28;20085;-56
2023/04/25 01:56:07;;;;;;;16.40;3.53;;;6.30;99.90;;;;;;4982920;28;20047;-57
2023/04/25 01:58:32;;;;;;;18.67;3.58;;;6.30;99.90;;;;;;4982222;28;20042;-51
2023/04/25 02:00:58;;;;;;;15.35;3.72;;;6.30;99.90;;;;;;4982611;28;20401;-60
2023/04/25 02:03:24;;;;;;;19.08;3.40;;;6.40;99.90;;;;;;4981596;28;20057;-57
2023/04/25 02:05:49;;;;;;;15.10;3.15;;;6.30;99.90;;;;;;4982426;28;20512;-55
2023/04/25 02:08:17;;;;;;;15.30;3.30;;;6.20;99.90;;;;;;4982105;28;20295;-60
2023/04/25 02:10:43;;;;;;;15.75;3.30;;;6.20;99.90;;;;;;4982563;28;20089;-54
2023/04/25 02:13:09;;;;;;;17.58;4.07;;;6.20;99.90;;;;;;4982647;28;20078;-56
2023/04/25 02:15:34;;;;;;;19.35;3.90;;;6.20;99.90;;;;;;4984357;28;20058;-56
2023/04/25 02:18:00;;;;;;;12.82;2.75;;;6.20;99.90;;;;;;4985489;28;20049;-56
2023/04/25 02:20:27;;;;;;;18.75;3.55;;;6.20;99.90;;;;;;4986509;28;20054;-60
2023/04/25 02:22:52;;;;;;;20.63;4.10;;;6.20;99.90;;;;;;4986023;28;20049;-57
2023/04/25 02:25:21;;;;;;;16.77;3.55;;;6.10;99.90;;;;;;4985591;28;20046;-55
2023/04/25 02:27:48;;;;;;;13.75;3.30;;;6.20;99.90;;;;;;4985903;28;20592;-59
2023/04/25 02:30:13;;;;;;;14.40;3.47;;;6.10;99.90;;;;;;4985887;28;20092;-59
2023/04/25 02:32:40;;;;;;;20.33;2.85;;;6.10;99.90;;;;;;4984941;28;20042;-56
2023/04/25 02:35:06;;;;;;;13.20;3.40;;;6.10;99.90;;;;;;4985938;28;20046;-60
2023/04/25 02:37:38;;;;;;;17.85;3.53;;;6.10;99.90;;;;;;4985942;28;20333;-60
2023/04/25 02:40:06;;;;;;;14.55;2.88;;;6.10;99.90;;;;;;4984882;28;20050;-56
2023/04/25 02:42:32;;;;;;;13.43;2.97;;;6.00;99.90;;;;;;4984481;28;20054;-61
2023/04/25 02:44:57;;;;;;;13.68;3.20;;;6.20;99.90;;;;;;4985504;28;20553;-56
2023/04/25 02:47:23;;;;;;;18.40;3.80;;;6.30;99.90;;;;;;4984854;28;20387;-56
2023/04/25 02:49:49;;;;;;;14.98;3.53;;;6.00;99.90;;;;;;4984636;28;20125;-57
2023/04/25 02:52:14;;;;;;;15.25;3.30;;;5.90;99.90;;;;;;4984282;28;20042;-59
2023/04/25 02:54:40;;;;;;;16.80;3.47;;;5.80;99.90;;;;;;4984695;28;20038;-60
2023/04/25 02:57:07;;;;;;;14.60;2.97;;;5.70;99.90;;;;;;4985142;28;20080;-54
2023/04/25 02:59:33;;;;;;;12.55;2.95;;;5.80;99.90;;;;;;4985080;28;20050;-56
2023/04/25 03:01:58;;;;;;;16.48;3.30;;;5.70;99.90;;;;;;4985442;28;20548;-56
2023/04/25 03:04:24;;;;;;;13.25;3.53;;;5.70;99.90;;;;;;4984333;28;20054;-58
2023/04/25 03:06:50;;;;;;;18.15;3.55;;;5.70;99.90;;;;;;4985336;28;20041;-59
2023/04/25 03:09:16;;;;;;;11.20;2.92;;;5.70;99.90;;;;;;4985117;28;20093;-56
2023/04/25 03:11:42;;;;;;;14.13;2.83;;;5.60;99.90;;;;;;4984775;28;20672;-58
2023/04/25 03:14:07;;;;;;;10.40;2.80;;;5.60;99.90;;;;;;4984749;28;21010;-54
2023/04/25 03:16:33;;;;;;;12.13;2.47;;;5.50;99.90;;;;;;4985172;28;20133;-61
2023/04/25 03:18:59;;;;;;;13.55;3.10;;;5.80;99.90;;;;;;4984443;28;20507;-59
2023/04/25 03:21:26;;;;;;;13.68;2.67;;;5.40;99.90;;;;;;4984472;28;20089;-55
2023/04/25 03:23:52;;;;;;;12.77;2.85;;;5.50;99.90;;;;;;4985168;28;20054;-59
2023/04/25 03:26:17;;;;;;;11.30;3.00;;;5.40;99.90;;;;;;4985024;28;20057;-59
2023/04/25 03:28:43;;;;;;;10.98;2.58;;;5.30;99.90;;;;;;4985148;28;20054;-57
2023/04/25 03:31:09;;;;;;;9.35;2.63;;;5.30;99.90;;;;;;4984806;28;20042;-56
2023/04/25 03:33:34;;;;;;;10.85;2.58;;;5.30;99.90;;;;;;4984094;28;20255;-57
2023/04/25 03:36:00;;;;;;;12.10;2.90;;;5.30;99.90;;;;;;4984999;28;20042;-60
2023/04/25 03:38:25;;;;;;;11.38;2.30;;;5.50;99.90;;;;;;4984322;28;20050;-57
2023/04/25 03:40:51;;;;;;;10.82;2.80;;;5.40;99.90;;;;;;4984787;28;20108;-58
2023/04/25 03:43:17;;;;;;;9.32;2.35;;;5.20;99.90;;;;;;4984671;28;20132;-55
2023/04/25 03:45:43;;;;;;;10.57;2.40;;;5.20;99.90;;;;;;4984328;28;20043;-57
2023/04/25 03:48:08;;;;;;;15.43;2.72;;;5.20;99.90;;;;;;4984112;28;20053;-60
2023/04/25 03:50:34;;;;;;;15.07;2.50;;;5.20;99.90;;;;;;4984780;28;20536;-58
2023/04/25 03:53:00;;;;;;;16.58;3.03;;;5.20;99.90;;;;;;4984455;28;20121;-55
2023/04/25 03:55:25;;;;;;;15.88;2.88;;;5.10;99.90;;;;;;4984286;28;20466;-51
2023/04/25 03:57:51;;;;;;;10.82;2.53;;;5.10;99.90;;;;;;4982766;28;20133;-56
2023/04/25 04:00:17;;;;;;;10.80;2.65;;;5.00;99.90;;;;;;4983963;28;20060;-60
2023/04/25 04:02:42;;;;;;;12.25;2.70;;;5.30;99.90;;;;;;4983326;28;20513;-53
2023/04/25 04:05:09;;;;;;;14.35;2.80;;;5.00;99.90;;;;;;4984253;28;20073;-57
2023/04/25 04:07:39;;;;;;;12.75;2.53;;;4.90;99.90;;;;;;4984208;28;20144;-57
2023/04/25 04:10:09;;;;;;;10.57;2.97;;;4.80;99.90;;;;;;4983684;28;20497;-57
2023/04/25 04:12:35;;;;;;;11.50;2.40;;;4.70;99.90;;;;;;4984349;28;20445;-60
2023/04/25 04:15:05;;;;;;;15.02;2.70;;;4.60;99.90;;;;;;4983881;28;20117;-52
2023/04/25 04:17:31;;;;;;;13.15;3.55;;;4.60;99.90;;;;;;4982365;28;20089;-53
2023/04/25 04:19:57;;;;;;;9.80;2.67;;;4.50;99.90;;;;;;4983888;28;20158;-59
2023/04/25 04:22:23;;;;;;;14.68;3.50;;;4.60;99.90;;;;;;4984234;28;20441;-59
2023/04/25 04:24:49;;;;;;;13.98;2.88;;;4.50;99.90;;;;;;4983745;28;20121;-58
2023/04/25 04:27:17;;;;;;;16.77;3.00;;;4.60;99.90;;;;;;4983834;28;20441;-58
2023/04/25 04:29:43;;;;;;;11.88;3.03;;;4.60;99.90;;;;;;4984339;28;20065;-59
2023/04/25 04:32:08;;;;;;;14.38;2.75;;;4.70;99.90;;;;;;4984058;28;20520;-57
2023/04/25 04:34:34;;;;;;;18.85;3.25;;;4.70;99.90;;;;;;4982214;28;20058;-59
2023/04/25 04:37:00;;;;;;;14.70;3.03;;;4.80;99.90;;;;;;4983332;28;20093;-55
2023/04/25 04:39:26;;;;;;;13.50;2.40;;;4.90;99.90;;;;;;4983163;28;20107;-57
2023/04/25 04:41:52;;;;;;;16.13;2.90;;;4.90;99.90;;;;;;4982977;28;20054;-59
2023/04/25 04:44:17;;;;;;;12.52;2.63;;;5.00;99.90;;;;;;4983911;28;20042;-58
2023/04/25 04:46:44;;;;;;;10.30;2.30;;;5.00;99.90;;;;;;4983497;28;20061;-56
2023/04/25 04:49:11;;;;;;;13.52;2.88;;;4.60;99.90;;;;;;4982698;28;20046;-54
2023/04/25 04:51:37;;;;;;;13.13;2.67;;;5.00;99.90;;;;;;4982782;28;20111;-59
2023/04/25 04:54:03;;;;;;;12.20;2.80;;;5.40;99.90;;;;;;4983380;28;20134;-59
2023/04/25 04:56:30;;;;;;;11.70;2.20;;;5.10;99.90;;;;;;4983653;28;20204;-58
2023/04/25 04:58:57;;;;;;;9.75;2.70;;;5.10;99.90;;;;;;4982494;28;20416;-58
2023/04/25 05:01:23;;;;;;;10.57;2.40;;;5.10;99.90;;;;;;4983215;28;20079;-58
2023/04/25 05:03:49;;;;;;;7.57;2.15;;;5.10;99.90;;;;;;4983058;28;20461;-51
2023/04/25 05:06:17;;;;;;;9.23;2.10;;;5.20;99.90;;;;;;4983132;28;20045;-56
2023/04/25 05:08:42;;;;;;;9.70;2.00;;;5.00;99.90;;;;;;4983193;28;20042;-59
2023/04/25 05:11:08;;;;;;;12.02;2.10;;;5.00;99.90;;;;;;4983178;28;20498;-62
2023/04/25 05:13:34;;;;;;;9.73;2.17;;;5.00;99.90;;;;;;4982754;28;20527;-57
2023/04/25 05:16:00;;;;;;;11.77;2.17;;;5.00;99.90;;;;;;4982530;28;20049;-56
2023/04/25 05:18:25;;;;;;;10.32;2.30;;;5.00;99.90;;;;;;4981991;28;20086;-56
2023/04/25 05:20:51;;;;;;;8.13;2.60;;;5.00;99.90;;;;;;4982894;28;20129;-58
2023/04/25 05:23:17;;;;;;;8.98;2.05;;;5.00;99.90;;;;;;4982880;28;20429;-60
2023/04/25 05:25:42;;;;;;;11.88;2.05;;;5.00;99.90;;;;;;4983077;28;20192;-56
2023/04/25 05:28:08;;;;;;;9.48;2.40;;;5.00;99.90;;;;;;4982899;28;20050;-56
2023/04/25 05:30:34;;;;;;;10.27;2.70;;;5.00;99.90;;;;;;4982439;28;20274;-50
2023/04/25 05:33:00;;;;;;;11.20;2.05;;;5.20;99.90;;;;;;4982267;28;20406;-59
2023/04/25 05:35:26;;;;;;;10.48;2.50;;;5.80;99.90;;;;;;4982695;28;20038;-58
2023/04/25 05:37:51;;;;;;;11.70;2.92;;;6.30;99.90;;;;;;4982660;28;20146;-54
2023/04/25 05:40:17;;;;;;;8.90;2.20;;;6.30;99.90;;;;;;4982210;28;20125;-55
2023/04/25 05:42:43;;;;;;;11.88;2.90;;;6.10;99.90;;;;;;4982956;28;20129;-60
2023/04/25 05:45:09;;;;;;;11.65;2.35;;;5.80;99.90;;;;;;4982482;28;20649;-57
2023/04/25 05:47:35;;;;;;;10.80;2.03;;;5.60;99.90;;;;;;4981270;28;20045;-60
2023/04/25 05:50:00;;;;;;;7.63;1.88;;;5.40;99.90;;;;;;4984945;28;20477;-54
2023/04/25 05:52:26;;;;;;;6.65;1.80;;;5.30;99.90;;;;;;4985009;28;20058;-58
2023/04/25 05:54:52;;;;;;;8.95;2.35;;;5.10;99.90;;;;;;4986899;28;20688;-60
2023/04/25 05:57:24;;;;;;;9.48;2.10;;;5.20;99.90;;;;;;4986395;28;20042;-60
2023/04/25 05:59:51;;;;;;;10.38;2.35;;;4.90;99.90;;;;;;4986810;28;20121;-60
2023/04/25 06:02:17;;;;;;;11.25;2.67;;;5.10;99.90;;;;;;4985774;28;20153;-60
2023/04/25 06:04:43;;;;;;;9.30;2.50;;;4.80;99.90;;;;;;4984534;28;20058;-56
2023/04/25 06:07:09;;;;;;;11.57;2.97;;;5.30;99.90;;;;;;4985132;28;20051;-54
2023/04/25 06:09:34;;;;;;;10.55;2.50;;;4.90;99.90;;;;;;4986063;28;20167;-60
2023/04/25 06:12:01;;;;;;;9.63;2.08;;;5.00;99.90;;;;;;4985632;28;20125;-58
2023/04/25 06:14:27;;;;;;;9.15;2.55;;;5.10;99.90;;;;;;4985867;28;20054;-60
2023/04/25 06:16:53;;;;;;;12.90;2.33;;;5.10;99.90;;;;;;4986446;28;20049;-55
2023/04/25 06:19:18;;;;;;;13.18;2.40;;;5.10;99.90;;;;;;4985014;28;20484;-57
2023/04/25 06:21:44;;;;;;;11.07;2.15;;;5.20;99.90;;;;;;4985406;28;20129;-59
2023/04/25 06:24:10;;;;;;;7.88;1.90;;;5.70;99.90;;;;;;4986249;28;20038;-61
2023/04/25 06:26:36;;;;;;;11.20;2.67;;;5.80;99.90;;;;;;4986022;28;20541;-59
2023/04/25 06:29:02;;;;;;;9.95;2.35;;;6.30;99.90;;;;;;4985241;28;20458;-56
2023/04/25 06:31:28;;;;;;;10.43;2.45;;;6.40;99.90;;;;;;4986039;28;20129;-57
2023/04/25 06:33:54;;;;;;;12.55;2.92;;;6.30;99.90;;;;;;4985420;28;20050;-61
2023/04/25 06:36:24;;;;;;;8.88;2.13;;;6.10;99.90;;;;;;4985351;28;20042;-57
2023/04/25 06:38:54;;;;;;;11.13;2.10;;;6.00;99.90;;;;;;4986343;28;20058;-60
2023/04/25 06:41:20;;;;;;;10.35;2.40;;;6.10;99.90;;;;;;4984662;28;20045;-57
2023/04/25 06:43:46;;;;;;;12.10;2.40;;;5.90;99.90;;;;;;4984883;28;20058;-55
2023/04/25 06:46:12;;;;;;;13.95;2.13;;;6.00;99.90;;;;;;4985755;28;20058;-56
2023/04/25 06:48:38;;;;;;;11.85;2.25;;;6.30;99.90;;;;;;4984751;28;20070;-60
2023/04/25 06:51:04;;;;;;;7.07;1.92;;;6.10;99.90;;;;;;4984056;28;20130;-60
2023/04/25 06:53:29;;;;;;;10.23;2.20;;;6.20;99.90;;;;;;4985145;28;20046;-59
2023/04/25 06:55:55;;;;;;;11.57;2.63;;;6.90;99.90;;;;;;4985954;28;20053;-57
2023/04/25 06:58:21;;;;;;;9.98;1.83;;;7.70;99.90;;;;;;4968371;28;20088;-60
2023/04/25 07:00:46;;;;;;;9.68;1.58;;;8.40;99.90;;;;;;4984489;28;20050;-60
2023/04/25 07:03:12;;;;;;;9.07;1.70;;;8.70;99.90;;;;;;4983012;28;20480;-61
2023/04/25 07:05:37;;;;;;;6.78;1.50;;;9.30;99.90;;;;;;4984055;28;20061;-57
2023/04/25 07:08:03;;;;;;;8.75;1.80;;;9.60;99.90;;;;;;4985303;28;20046;-57
2023/04/25 07:10:29;;;;;;;4.32;1.33;;;9.90;99.90;;;;;;4984688;28;20034;-60
2023/04/25 07:12:55;;;;;;;9.27;1.80;;;10.10;99.90;;;;;;4985676;28;20047;-59
2023/04/25 07:15:20;;;;;;;6.15;1.40;;;10.20;99.90;;;;;;4985078;28;20576;-59
2023/04/25 07:17:46;;;;;;;7.68;1.85;;;10.30;99.90;;;;;;4984155;28;20054;-57
2023/04/25 07:20:12;;;;;;;10.07;1.83;;;10.20;99.90;;;;;;4987123;28;20117;-57
2023/04/25 07:22:38;;;;;;;13.10;2.15;;;9.50;99.90;;;;;;4986370;28;20035;-58
2023/04/25 07:25:04;;;;;;;11.38;2.10;;;8.50;99.90;;;;;;4984072;28;20054;-59
2023/04/25 07:27:30;;;;;;;11.13;1.58;;;7.80;99.90;;;;;;4982881;28;20038;-54
2023/04/25 07:29:55;;;;;;;12.18;2.00;;;7.60;99.90;;;;;;4985041;28;20042;-54
2023/04/25 07:32:21;;;;;;;6.65;1.63;;;7.10;99.90;;;;;;4984336;28;20042;-60
2023/04/25 07:34:47;;;;;;;8.73;1.55;;;6.90;99.90;;;;;;4984220;28;20567;-59
2023/04/25 07:37:13;;;;;;;6.45;1.38;;;6.90;99.90;;;;;;4985064;28;20559;-60
2023/04/25 07:39:39;;;;;;;9.63;1.75;;;7.00;99.90;;;;;;4984663;28;20049;-56
2023/04/25 07:42:07;;;;;;;4.78;1.17;;;7.30;99.90;;;;;;4984250;28;20378;-58
2023/04/25 07:44:38;;;;;;;5.82;1.40;;;8.90;99.90;;;;;;4983590;28;20031;-61
2023/04/25 07:47:06;;;;;;;8.65;1.30;;;7.60;99.90;;;;;;4983735;28;20047;-57
2023/04/25 07:49:33;;;;;;;7.47;1.70;;;7.70;99.90;;;;;;4984364;28;20456;-60
2023/04/25 07:51:59;;;;;;;6.38;1.35;;;7.90;99.90;;;;;;4984428;28;20081;-51
2023/04/25 07:54:25;;;;;;;9.48;1.48;;;8.10;99.90;;;;;;4984563;28;20521;-56
2023/04/25 07:56:50;;;;;;;5.43;1.65;;;8.30;99.90;;;;;;4984373;28;20286;-61
2023/04/25 07:59:16;;;;;;;9.13;1.45;;;8.20;99.90;;;;;;4984110;28;20043;-52
2023/04/25 08:01:42;;;;;;;6.25;1.42;;;8.50;99.90;;;;;;4984157;28;20490;-62
2023/04/25 08:04:07;;;;;;;7.57;1.60;;;9.00;99.90;;;;;;4982121;28;20046;-60
2023/04/25 08:06:33;;;;;;;7.93;1.48;;;9.50;99.90;;;;;;4983590;28;20105;-54
2023/04/25 08:08:59;;;;;;;9.68;1.65;;;9.80;99.90;;;;;;4983277;28;20050;-61
2023/04/25 08:11:25;;;;;;;6.93;1.45;;;10.10;99.90;;;;;;4983744;28;20046;-61
2023/04/25 08:13:50;;;;;;;9.23;1.52;;;10.30;99.90;;;;;;4983344;28;20106;-61
2023/04/25 08:16:16;;;;;;;8.05;1.50;;;10.80;99.90;;;;;;4983660;28;20062;-57
2023/04/25 08:18:42;;;;;;;7.38;1.30;;;10.50;99.90;;;;;;4983106;28;20078;-58
2023/04/25 08:21:11;;;;;;;6.55;1.30;;;10.40;99.90;;;;;;4984314;28;20045;-61
2023/04/25 08:23:37;;;;;;;5.28;1.60;;;10.70;99.90;;;;;;4983334;28;20069;-58
2023/04/25 08:26:03;;;;;;;10.90;1.60;;;10.70;99.90;;;;;;4982292;28;20058;-55
2023/04/25 08:28:28;;;;;;;7.25;1.50;;;10.20;99.90;;;;;;4983818;28;20166;-58
2023/04/25 08:30:54;;;;;;;9.75;1.42;;;9.60;99.90;;;;;;4983157;28;20073;-52
2023/04/25 08:33:20;;;;;;;10.43;1.83;;;9.20;99.90;;;;;;4985999;28;20046;-61
2023/04/25 08:35:45;;;;;;;10.10;2.70;;;8.70;99.90;;;;;;5003101;28;20038;-57
2023/04/25 08:38:11;;;;;;;7.65;1.60;;;8.30;99.90;;;;;;5003375;28;20136;-57
2023/04/25 08:40:39;;;;;;;6.68;1.50;;;8.20;99.90;;;;;;5002747;28;20404;-60
2023/04/25 08:43:11;;;;;;;10.93;1.90;;;8.60;99.90;;;;;;5003001;28;20084;-61
2023/04/25 08:45:40;;;;;;;9.55;2.00;;;8.50;99.90;;;;;;5002886;28;20345;-53
2023/04/25 08:48:11;;;;;;;4.25;1.10;;;8.20;99.90;;;;;;5002803;28;20050;-58
2023/04/25 08:50:40;;;;;;;5.13;1.17;;;8.00;99.90;;;;;;5002892;28;20073;-60
2023/04/25 08:53:09;;;;;;;6.55;1.10;;;7.60;99.90;;;;;;5002460;28;20061;-53
2023/04/25 08:55:38;;;;;;;6.60;1.10;;;7.40;99.90;;;;;;5001556;28;20079;-61
2023/04/25 08:58:05;;;;;;;5.53;1.27;;;7.20;99.90;;;;;;5002749;28;20045;-54
2023/04/25 09:00:31;;;;;;;3.70;1.05;;;7.10;99.90;;;;;;5001126;28;20137;-57
2023/04/25 09:02:58;;;;;;;4.47;1.13;;;7.10;99.90;;;;;;5002304;28;20847;-61
2023/04/25 09:05:24;;;;;;;6.32;1.17;;;7.40;99.90;;;;;;5002859;28;20061;-59
2023/04/25 09:07:50;;;;;;;8.65;1.40;;;7.70;99.90;;;;;;5002695;28;20042;-59
2023/04/25 09:10:15;;;;;;;12.10;1.80;;;7.90;99.90;;;;;;4994002;28;20092;-57
2023/04/25 09:12:42;;;;;;;6.00;1.10;;;8.10;99.90;;;;;;4983132;28;20088;-61
2023/04/25 09:15:10;;;;;;;7.47;1.38;;;8.20;99.90;;;;;;4983960;28;20127;-58
2023/04/25 09:17:40;;;;;;;5.85;1.55;;;8.30;99.90;;;;;;4981685;28;20055;-54
2023/04/25 09:20:24;;;;;;;5.47;1.30;;;8.50;99.90;;;;;;4982076;28;20444;-61
2023/04/25 09:23:02;;;;;;;6.15;1.08;;;8.70;99.90;;;;;;4981078;28;20058;-57
2023/04/25 09:25:38;;;;;;;6.43;1.27;;;9.00;99.90;;;;;;4981997;28;20081;-55
2023/04/25 09:28:05;;;;;;;7.35;1.33;;;9.20;99.90;;;;;;4982342;28;20050;-49
2023/04/25 09:30:36;;;;;;;8.27;1.50;;;9.30;99.90;;;;;;4982427;28;20042;-62
2023/04/25 09:33:10;;;;;;;7.85;1.65;;;9.30;99.90;;;;;;4981514;28;20050;-60
2023/04/25 09:35:40;;;;;;;10.10;1.33;;;9.60;99.90;;;;;;4979513;28;20046;-62
2023/04/25 09:38:14;;;;;;;6.72;1.30;;;9.60;99.90;;;;;;4981450;28;20057;-55
2023/04/25 09:40:45;;;;;;;5.85;1.33;;;9.30;99.90;;;;;;4981123;28;20050;-54
2023/04/25 09:43:24;;;;;;;6.68;1.40;;;9.30;99.90;;;;;;4981324;28;20038;-61
2023/04/25 09:45:52;;;;;;;7.35;1.50;;;9.50;99.90;;;;;;4982014;28;20042;-60
2023/04/25 09:48:20;;;;;;;5.78;1.13;;;9.80;99.90;;;;;;4981142;28;20046;-57
2023/04/25 09:51:05;;;;;;;6.38;1.48;;;10.20;99.90;;;;;;4982624;28;20046;-62
2023/04/25 09:53:34;;;;;;;5.63;1.27;;;10.40;99.90;;;;;;4982316;28;20054;-57
2023/04/25 09:56:00;;;;;;;9.68;1.88;;;10.50;99.90;;;;;;4982534;28;20476;-59
2023/04/25 09:58:29;;;;;;;7.45;1.40;;;10.40;99.90;;;;;;4982616;28;20133;-62
2023/04/25 10:01:06;;;;;;;5.57;1.33;;;10.40;99.90;;;;;;4982049;28;20421;-59
2023/04/25 10:03:33;;;;;;;4.40;1.10;;;10.60;99.90;;;;;;4982104;28;20042;-58
2023/04/25 10:06:01;;;;;;;7.68;1.38;;;10.40;99.90;;;;;;4982585;28;20132;-62
2023/04/25 10:08:37;;;;;;;6.25;1.27;;;10.20;99.90;;;;;;4981975;28;20100;-58
2023/04/25 10:11:08;;;;;;;6.32;1.48;;;10.00;99.90;;;;;;4983008;28;20212;-62
2023/04/25 10:13:35;;;;;;;9.23;1.65;;;10.10;99.90;;;;;;4982985;28;20042;-62
2023/04/25 10:16:03;;;;;;;11.27;1.80;;;10.10;99.90;;;;;;4982558;28;20084;-62
2023/04/25 10:18:32;;;;;;;6.82;1.30;;;10.20;99.90;;;;;;4981710;28;20101;-56
2023/04/25 10:21:00;;;;;;;10.50;1.33;;;10.50;99.90;;;;;;4982520;28;20058;-61
2023/04/25 10:23:27;;;;;;;6.13;1.35;;;11.00;99.90;;;;;;4982393;28;20093;-61
2023/04/25 10:25:53;;;;;;;6.20;1.30;;;11.40;99.90;;;;;;4982336;28;20453;-56
2023/04/25 10:28:20;;;;;;;4.10;0.93;;;11.70;99.60;;;;;;4982369;28;20038;-62
2023/04/25 10:31:03;;;;;;;5.30;1.10;;;12.10;98.70;;;;;;4981894;28;20046;-59
2023/04/25 10:33:38;;;;;;;5.82;1.05;;;12.40;94.10;;;;;;4981325;28;20053;-57
2023/04/25 10:36:12;;;;;;;5.75;1.30;;;12.40;92.20;;;;;;4983748;28;20042;-54
2023/04/25 10:38:39;;;;;;;5.57;1.10;;;12.30;92.20;;;;;;4985935;28;20058;-58
2023/04/25 10:41:10;;;;;;;5.35;1.20;;;12.30;92.10;;;;;;4984667;28;20052;-56
2023/04/25 10:43:37;;;;;;;5.35;1.08;;;12.20;91.90;;;;;;4986156;28;20501;-61
2023/04/25 10:46:13;;;;;;;7.50;1.40;;;11.80;93.10;;;;;;4985562;28;20125;-53
2023/04/25 10:48:52;;;;;;;5.70;1.40;;;11.40;94.50;;;;;;4985074;28;20046;-54
2023/04/25 10:51:18;;;;;;;6.43;1.25;;;10.90;95.70;;;;;;4985453;28;20092;-55
2023/04/25 10:54:08;;;;;;;5.40;1.50;;;10.20;96.30;;;;;;4985446;28;20041;-58
2023/04/25 10:56:43;;;;;;;5.40;1.10;;;9.70;97.60;;;;;;4982754;28;20081;-60
2023/04/25 10:59:13;;;;;;;4.13;1.00;;;9.20;99.00;;;;;;4984966;28;20051;-52
2023/04/25 11:01:48;;;;;;;3.85;1.05;;;8.80;99.90;;;;;;4984899;28;20062;-49
2023/04/25 11:04:30;;;;;;;4.82;1.33;;;8.50;99.90;;;;;;4983960;28;20169;-60
2023/04/25 11:07:22;;;;;;;5.97;1.15;;;8.40;99.70;;;;;;4985243;28;20054;-53
2023/04/25 11:09:49;;;;;;;5.22;1.30;;;8.50;99.30;;;;;;4984900;28;20167;-54
2023/04/25 11:12:16;;;;;;;5.05;1.00;;;8.70;99.60;;;;;;4985255;28;20449;-60
2023/04/25 11:14:41;;;;;;;7.45;1.40;;;9.30;99.90;;;;;;4985020;28;20062;-61
2023/04/25 11:17:07;;;;;;;5.38;1.45;;;9.90;98.90;;;;;;4983962;28;20042;-49
2023/04/25 11:19:33;;;;;;;5.18;1.10;;;10.30;97.80;;;;;;4984907;28;20082;-55
2023/04/25 11:22:00;;;;;;;8.27;1.60;;;10.70;97.60;;;;;;4984758;28;20126;-57
2023/04/25 11:24:36;;;;;;;9.93;1.50;;;10.90;97.20;;;;;;4985140;28;20076;-58
2023/04/25 11:27:08;;;;;;;8.68;1.77;;;10.90;96.70;;;;;;4984799;28;20086;-59
2023/04/25 11:29:34;;;;;;;5.15;1.45;;;10.70;97.70;;;;;;4984562;28;20137;-56
2023/04/25 11:32:01;;;;;;;5.30;1.55;;;10.10;98.70;;;;;;4983524;28;20088;-60
2023/04/25 11:34:32;;;;;;;8.40;1.83;;;9.70;99.90;;;;;;4984701;28;20046;-60
2023/04/25 11:36:59;;;;;;;7.05;1.75;;;9.50;99.90;;;;;;4984617;28;20054;-60
2023/04/25 11:39:26;;;;;;;6.78;1.70;;;9.30;99.90;;;;;;4983973;28;20148;-58
2023/04/25 11:41:53;;;;;;;10.20;2.00;;;9.50;99.90;;;;;;4984647;28;20078;-58
2023/04/25 11:44:20;;;;;;;8.98;1.67;;;9.50;99.90;;;;;;4984462;28;20117;-58
2023/04/25 11:46:46;;;;;;;5.55;1.30;;;10.00;99.90;;;;;;4982062;28;20414;-62
2023/04/25 11:49:17;;;;;;;8.57;1.70;;;10.30;99.90;;;;;;4984755;28;20050;-54
2023/04/25 11:51:46;;;;;;;6.88;1.35;;;10.80;99.90;;;;;;4984493;28;20417;-59
2023/04/25 11:54:12;;;;;;;4.30;1.30;;;11.20;98.70;;;;;;4984023;28;20053;-60
2023/04/25 11:56:41;;;;;;;4.07;1.05;;;11.50;96.20;;;;;;4984659;28;20050;-58
2023/04/25 11:59:06;;;;;;;5.78;1.15;;;11.80;96.00;;;;;;4984129;28;20085;-59
2023/04/25 12:01:36;;;;;;;6.28;1.55;;;11.80;94.40;;;;;;4981639;28;20916;-53
2023/04/25 12:04:12;;;;;;;5.28;1.40;;;11.90;94.50;;;;;;4983883;28;20405;-58
2023/04/25 12:06:39;;;;;;;5.60;1.17;;;12.00;94.00;;;;;;4984399;28;20065;-55
2023/04/25 12:09:08;;;;;;;4.72;1.20;;;12.00;93.30;;;;;;4983452;28;20464;-57
2023/04/25 12:11:42;;;;;;;8.50;1.52;;;12.10;93.80;;;;;;4983953;28;20050;-57
2023/04/25 12:14:08;;;;;;;8.43;1.52;;;12.20;93.90;;;;;;4984018;28;20062;-60
2023/04/25 12:16:45;;;;;;;5.10;1.00;;;11.90;93.60;;;;;;4982737;28;20054;-58
2023/04/25 12:19:15;;;;;;;5.00;1.38;;;11.60;94.20;;;;;;4984232;28;20433;-57
2023/04/25 12:21:40;;;;;;;10.02;1.73;;;11.50;94.10;;;;;;4983677;28;20125;-57
2023/04/25 12:24:28;;;;;;;7.60;1.38;;;11.50;94.50;;;;;;4982493;28;20132;-57
2023/04/25 12:27:05;;;;;;;6.82;1.65;;;11.60;93.70;;;;;;4983829;28;20050;-60
2023/04/25 12:29:34;;;;;;;9.35;1.50;;;11.60;94.10;;;;;;4982629;28;20319;-60
2023/04/25 12:32:01;;;;;;;9.77;1.63;;;11.70;94.30;;;;;;4982856;28;20370;-55
2023/04/25 12:34:27;;;;;;;8.43;1.88;;;11.90;93.70;;;;;;4981392;28;20046;-56
2023/04/25 12:36:53;;;;;;;6.07;1.40;;;12.00;94.30;;;;;;4983533;28;20061;-61
2023/04/25 12:39:24;;;;;;;10.88;2.17;;;12.10;95.40;;;;;;4983314;28;20070;-54
2023/04/25 12:41:53;;;;;;;6.55;1.38;;;12.00;96.20;;;;;;4983207;28;20046;-49
2023/04/25 12:44:19;;;;;;;10.18;1.55;;;11.70;96.70;;;;;;4983418;28;20046;-58
2023/04/25 12:46:45;;;;;;;10.60;1.58;;;11.40;97.10;;;;;;4982450;28;20052;-50
2023/04/25 12:49:11;;;;;;;6.30;1.27;;;11.10;97.40;;;;;;4983229;28;20100;-59
2023/04/25 12:51:37;;;;;;;5.82;1.33;;;10.70;97.50;;;;;;4983416;28;20042;-59